Time;durP1;ratioP1;P1;durP2;ratioP2;P2;SDS_P1;SDS_P2;PMS_P1;PMS_P2;Temp;Humidity;BMP_temperature;BMP_pressure;BME280_temperature;BME280_humidity;BME280_pressure;Samples;Min_cycle;Max_cycle;Signal;HPM_P1;HPM_P2
2023/04/24 00:00:14;;;;;;;10.05;8.55;;;;;;;14.58;85.17;98539.22;5053060;28;20067;-76
2023/04/24 00:02:40;;;;;;;10.40;8.90;;;;;;;14.62;85.27;98530.16;5053091;28;20029;-75
2023/04/24 00:05:07;;;;;;;14.02;10.15;;;;;;;14.74;84.91;98544.00;5053090;28;20049;-75
2023/04/24 00:07:33;;;;;;;14.77;10.85;;;;;;;14.90;84.79;98556.72;5052993;28;20391;-77
2023/04/24 00:09:58;;;;;;;11.48;10.10;;;;;;;14.69;85.93;98556.66;5052763;28;20104;-77
2023/04/24 00:12:24;;;;;;;13.32;10.68;;;;;;;14.57;86.51;98552.41;5052153;28;20111;-77
2023/04/24 00:14:50;;;;;;;12.75;11.15;;;;;;;14.54;87.00;98536.94;5053097;28;20104;-77
2023/04/24 00:17:16;;;;;;;14.38;11.52;;;;;;;14.40;87.40;98510.03;5052764;28;20366;-77
2023/04/24 00:19:41;;;;;;;12.43;11.10;;;;;;;14.44;87.91;98523.72;5052921;28;20036;-77
2023/04/24 00:22:07;;;;;;;13.90;11.40;;;;;;;14.48;88.36;98517.28;5052695;28;20079;-77
2023/04/24 00:24:32;;;;;;;16.73;12.70;;;;;;;14.46;89.46;98513.97;5052575;28;20075;-77
2023/04/24 00:26:58;;;;;;;14.02;11.73;;;;;;;14.50;89.98;98507.56;5052820;28;20461;-77
2023/04/24 00:29:23;;;;;;;16.38;12.77;;;;;;;14.43;90.53;98496.69;5052489;28;20369;-77
2023/04/24 00:31:49;;;;;;;19.40;13.43;;;;;;;14.36;91.19;98489.44;5052465;28;20036;-77
2023/04/24 00:34:14;;;;;;;18.45;15.60;;;;;;;14.41;91.63;98503.84;5052273;28;20598;-77
2023/04/24 00:36:40;;;;;;;18.50;15.60;;;;;;;14.38;92.73;98513.75;5052326;28;20053;-77
2023/04/24 00:39:08;;;;;;;19.95;16.35;;;;;;;14.30;92.59;98493.41;5052266;28;20017;-77
2023/04/24 00:41:34;;;;;;;19.02;16.52;;;;;;;14.42;92.10;98499.44;5052251;28;20029;-77
2023/04/24 00:44:00;;;;;;;17.25;15.40;;;;;;;14.55;91.33;98507.19;5052477;28;20033;-77
2023/04/24 00:46:25;;;;;;;19.75;16.00;;;;;;;14.47;91.46;98494.66;5052203;28;20112;-77
2023/04/24 00:48:51;;;;;;;17.20;15.20;;;;;;;14.57;91.32;98515.72;5052362;28;20025;-77
2023/04/24 00:51:17;;;;;;;16.35;14.65;;;;;;;14.43;91.16;98488.00;5052018;28;20029;-77
2023/04/24 00:53:42;;;;;;;16.98;15.10;;;;;;;14.59;91.29;98512.03;5052092;28;20121;-77
2023/04/24 00:56:07;;;;;;;14.98;13.45;;;;;;;14.56;90.77;98500.97;5052322;28;20074;-77
2023/04/24 00:58:33;;;;;;;17.13;15.35;;;;;;;14.56;90.59;98493.09;5052051;28;20025;-77
2023/04/24 01:01:00;;;;;;;16.48;14.77;;;;;;;14.63;90.63;98500.34;5052354;28;20033;-77
2023/04/24 01:03:29;;;;;;;15.40;13.75;;;;;;;14.56;91.20;98511.44;5051832;28;20111;-77
2023/04/24 01:05:55;;;;;;;18.00;14.88;;;;;;;14.51;91.08;98508.38;5052045;28;20025;-77
2023/04/24 01:08:24;;;;;;;17.27;14.98;;;;;;;14.52;90.97;98499.56;5051689;28;20492;-77
2023/04/24 01:10:52;;;;;;;15.75;14.05;;;;;;;14.26;91.65;98484.13;5052106;28;20036;-77
2023/04/24 01:13:18;;;;;;;18.45;14.50;;;;;;;14.22;92.12;98493.19;5051761;28;20036;-77
2023/04/24 01:15:44;;;;;;;15.75;13.77;;;;;;;14.14;93.07;98490.34;5052253;28;20104;-77
2023/04/24 01:18:09;;;;;;;17.90;14.05;;;;;;;14.07;93.72;98489.97;5051932;28;20107;-77
2023/04/24 01:20:39;;;;;;;19.50;15.40;;;;;;;13.87;94.05;98483.72;5051585;28;20029;-77
2023/04/24 01:23:05;;;;;;;20.13;15.52;;;;;;;13.92;95.28;98506.91;5051557;28;20025;-76
2023/04/24 01:25:31;;;;;;;18.90;15.77;;;;;;;13.79;95.39;98493.97;5052000;28;20025;-76
2023/04/24 01:27:56;;;;;;;17.83;15.55;;;;;;;13.67;95.99;98482.66;5051995;28;20090;-76
2023/04/24 01:30:21;;;;;;;18.88;15.70;;;;;;;13.71;96.09;98475.41;5051683;28;20432;-77
2023/04/24 01:32:48;;;;;;;19.40;15.77;;;;;;;13.66;96.62;98477.56;5051645;28;20132;-77
2023/04/24 01:35:14;;;;;;;21.98;17.33;;;;;;;13.70;96.77;98484.22;5051717;28;20021;-76
2023/04/24 01:37:39;;;;;;;22.00;17.20;;;;;;;13.94;96.28;98490.13;5051420;28;20361;-77
2023/04/24 01:40:07;;;;;;;23.20;19.00;;;;;;;13.77;96.58;98490.63;5051726;28;20040;-76
2023/04/24 01:42:32;;;;;;;25.35;20.15;;;;;;;13.57;97.15;98462.53;5051433;28;20464;-77
2023/04/24 01:44:59;;;;;;;23.75;19.90;;;;;;;13.53;96.77;98461.16;5051705;28;20044;-77
2023/04/24 01:47:25;;;;;;;25.45;19.15;;;;;;;13.40;97.50;98461.22;5051389;28;20107;-77
2023/04/24 01:49:50;;;;;;;24.98;20.00;;;;;;;13.34;97.65;98457.31;5050193;28;20446;-76
2023/04/24 01:52:18;;;;;;;23.27;19.80;;;;;;;13.53;97.25;98471.63;5051736;28;20029;-77
2023/04/24 01:54:43;;;;;;;20.92;17.77;;;;;;;13.53;96.85;98464.59;5051750;28;20480;-77
2023/04/24 01:57:09;;;;;;;20.08;17.80;;;;;;;13.51;96.63;98468.28;5051629;28;20036;-76
2023/04/24 01:59:36;;;;;;;20.83;17.05;;;;;;;13.51;96.92;98473.50;5051326;28;20025;-77
2023/04/24 02:02:02;;;;;;;21.83;18.15;;;;;;;13.35;97.05;98453.75;5051421;28;20377;-76
2023/04/24 02:04:27;;;;;;;22.67;16.88;;;;;;;13.39;97.06;98442.09;5051125;28;20384;-77
2023/04/24 02:06:53;;;;;;;22.42;17.50;;;;;;;13.44;96.71;98439.97;5051420;28;20116;-76
2023/04/24 02:09:18;;;;;;;20.40;17.23;;;;;;;13.53;96.59;98463.75;5051337;28;20040;-77
2023/04/24 02:11:43;;;;;;;21.70;17.25;;;;;;;13.56;96.49;98461.72;5051527;28;20056;-74
2023/04/24 02:14:09;;;;;;;20.00;17.75;;;;;;;13.35;96.57;98443.28;5051139;28;20032;-74
2023/04/24 02:16:35;;;;;;;22.83;17.23;;;;;;;13.32;96.82;98438.31;5051120;28;20028;-74
2023/04/24 02:19:01;;;;;;;20.48;16.85;;;;;;;13.31;96.43;98435.81;5051257;28;20079;-74
2023/04/24 02:21:27;;;;;;;21.02;16.40;;;;;;;13.26;96.61;98451.84;5051249;28;20033;-74
2023/04/24 02:23:53;;;;;;;20.52;16.98;;;;;;;13.17;97.13;98421.97;5051376;28;20025;-74
2023/04/24 02:26:18;;;;;;;21.20;18.00;;;;;;;13.27;97.39;98439.59;5051358;28;20515;-74
2023/04/24 02:28:44;;;;;;;23.17;17.95;;;;;;;13.03;97.91;98400.47;5050897;28;20520;-74
2023/04/24 02:31:09;;;;;;;23.35;17.83;;;;;;;13.01;98.00;98397.13;5051203;28;20101;-74
2023/04/24 02:33:35;;;;;;;24.02;17.40;;;;;;;13.26;98.29;98443.16;5050621;28;20056;-74
2023/04/24 02:36:01;;;;;;;22.30;17.73;;;;;;;13.15;98.27;98433.53;5054627;28;20033;-74
2023/04/24 02:38:27;;;;;;;23.45;18.52;;;;;;;13.15;98.06;98410.81;5054826;28;20028;-74
2023/04/24 02:40:52;;;;;;;20.70;17.33;;;;;;;13.18;97.84;98407.94;5054800;28;20029;-74
2023/04/24 02:43:17;;;;;;;20.63;17.40;;;;;;;13.21;97.76;98418.19;5054764;28;20029;-74
2023/04/24 02:45:43;;;;;;;22.80;19.25;;;;;;;13.11;97.93;98424.25;5054484;28;20498;-74
2023/04/24 02:48:08;;;;;;;22.88;18.98;;;;;;;13.14;98.17;98416.16;5054524;28;20393;-74
2023/04/24 02:50:34;;;;;;;22.67;18.88;;;;;;;13.12;97.82;98405.00;5054479;28;20041;-74
2023/04/24 02:52:59;;;;;;;25.48;18.90;;;;;;;13.19;97.64;98432.34;5054560;28;20586;-74
2023/04/24 02:55:24;;;;;;;24.25;20.95;;;;;;;13.27;97.08;98426.53;5054284;28;20021;-74
2023/04/24 02:57:50;;;;;;;24.48;19.00;;;;;;;13.20;96.73;98413.91;5054421;28;20028;-74
2023/04/24 03:00:16;;;;;;;22.20;18.58;;;;;;;13.29;96.56;98420.25;5054238;28;20029;-74
2023/04/24 03:02:41;;;;;;;22.77;17.50;;;;;;;13.22;96.24;98411.16;5053980;28;20029;-74
2023/04/24 03:05:07;;;;;;;21.55;17.90;;;;;;;13.07;96.11;98389.66;5054165;28;20029;-74
2023/04/24 03:07:33;;;;;;;20.02;17.83;;;;;;;13.23;95.69;98408.47;5054255;28;20040;-74
2023/04/24 03:09:59;;;;;;;22.90;19.15;;;;;;;13.29;95.23;98412.41;5054214;28;20024;-74
2023/04/24 03:12:24;;;;;;;19.75;16.90;;;;;;;13.28;94.97;98396.84;5053831;28;20021;-74
2023/04/24 03:14:49;;;;;;;20.25;17.58;;;;;;;13.22;94.69;98388.50;5054045;28;20021;-74
2023/04/24 03:17:15;;;;;;;20.63;17.77;;;;;;;13.41;93.95;98408.00;5053957;28;20021;-74
2023/04/24 03:19:40;;;;;;;21.23;16.65;;;;;;;13.31;93.96;98407.03;5053654;28;20024;-74
2023/04/24 03:22:06;;;;;;;20.00;15.95;;;;;;;13.45;93.23;98412.03;5054081;28;20074;-74
2023/04/24 03:24:31;;;;;;;21.13;16.33;;;;;;;13.38;92.62;98406.44;5053774;28;20492;-74
2023/04/24 03:26:57;;;;;;;22.30;16.40;;;;;;;13.25;92.77;98399.69;5053970;28;20480;-74
2023/04/24 03:29:22;;;;;;;21.08;18.10;;;;;;;13.36;92.28;98402.31;5053726;28;20052;-74
2023/04/24 03:31:48;;;;;;;19.58;16.42;;;;;;;13.42;91.92;98400.03;5053445;28;20057;-74
2023/04/24 03:34:14;;;;;;;17.20;15.40;;;;;;;13.56;91.39;98412.00;5053574;28;20053;-74
2023/04/24 03:36:39;;;;;;;16.38;14.00;;;;;;;13.38;91.16;98395.16;5053507;28;20025;-74
2023/04/24 03:39:05;;;;;;;19.10;15.13;;;;;;;13.45;91.11;98414.66;5053579;28;20025;-74
2023/04/24 03:41:30;;;;;;;17.92;15.50;;;;;;;13.35;91.19;98414.53;5053322;28;20461;-74
2023/04/24 03:43:56;;;;;;;16.42;14.40;;;;;;;13.18;91.59;98400.09;5053400;28;20102;-74
2023/04/24 03:46:21;;;;;;;18.92;15.20;;;;;;;13.26;91.72;98399.56;5052273;28;20115;-74
2023/04/24 03:48:46;;;;;;;18.85;16.42;;;;;;;13.41;91.79;98431.53;5053027;28;20032;-74
2023/04/24 03:51:12;;;;;;;17.63;15.00;;;;;;;13.28;91.79;98407.28;5053512;28;20419;-74
2023/04/24 03:53:37;;;;;;;19.30;15.48;;;;;;;13.18;92.04;98407.94;5053136;28;20036;-74
2023/04/24 03:56:02;;;;;;;22.08;16.00;;;;;;;13.10;92.57;98399.88;5053264;28;20025;-76
2023/04/24 03:58:28;;;;;;;18.90;15.80;;;;;;;13.22;92.83;98416.38;5053160;28;20032;-77
2023/04/24 04:00:53;;;;;;;18.67;15.20;;;;;;;13.15;92.79;98423.91;5053258;28;20075;-77
2023/04/24 04:03:19;;;;;;;19.38;16.30;;;;;;;13.03;93.40;98411.75;5053093;28;20469;-76
2023/04/24 04:05:44;;;;;;;21.52;15.82;;;;;;;12.94;93.12;98400.22;5052970;28;20079;-77
2023/04/24 04:08:09;;;;;;;21.10;16.83;;;;;;;13.06;92.62;98401.06;5053196;28;20473;-76
2023/04/24 04:10:35;;;;;;;19.35;15.93;;;;;;;13.21;92.40;98417.34;5052886;28;20137;-76
2023/04/24 04:13:00;;;;;;;17.85;15.77;;;;;;;13.27;92.09;98429.97;5052930;28;20043;-76
2023/04/24 04:15:26;;;;;;;20.20;15.75;;;;;;;13.43;91.16;98427.00;5052835;28;20036;-76
2023/04/24 04:17:51;;;;;;;18.38;15.50;;;;;;;13.45;90.79;98423.34;5053025;28;20033;-76
2023/04/24 04:20:16;;;;;;;21.58;16.35;;;;;;;13.30;90.81;98421.06;5052929;28;20029;-76
2023/04/24 04:22:42;;;;;;;20.88;16.08;;;;;;;13.20;90.92;98411.28;5052921;28;20036;-76
2023/04/24 04:25:08;;;;;;;19.80;16.27;;;;;;;13.22;91.08;98411.16;5052766;28;20515;-76
2023/04/24 04:27:34;;;;;;;19.20;15.65;;;;;;;13.15;91.06;98400.38;5052440;28;20112;-76
2023/04/24 04:30:04;;;;;;;22.33;15.77;;;;;;;13.25;90.86;98407.53;5052635;28;20423;-76
2023/04/24 04:32:33;;;;;;;18.02;15.55;;;;;;;13.12;91.24;98399.75;5052095;28;20056;-76
2023/04/24 04:35:02;;;;;;;20.65;15.93;;;;;;;13.12;91.22;98403.22;5052683;28;20021;-76
2023/04/24 04:37:35;;;;;;;21.35;15.50;;;;;;;13.26;91.31;98423.09;5052362;28;20033;-77
2023/04/24 04:40:06;;;;;;;21.35;16.30;;;;;;;13.27;91.14;98421.28;5052387;28;20051;-76
2023/04/24 04:42:32;;;;;;;17.27;14.63;;;;;;;13.40;90.95;98424.63;5052137;28;20480;-76
2023/04/24 04:44:57;;;;;;;18.25;15.43;;;;;;;13.58;90.11;98420.59;5052254;28;20127;-76
2023/04/24 04:47:23;;;;;;;17.63;15.73;;;;;;;14.02;88.98;98431.09;5052360;28;20500;-76
2023/04/24 04:49:50;;;;;;;19.38;15.30;;;;;;;14.75;85.95;98414.66;5051994;28;20043;-77
2023/04/24 04:52:17;;;;;;;18.60;15.57;;;;;;;15.25;82.51;98404.28;5052228;28;20029;-77
2023/04/24 04:54:42;;;;;;;19.38;14.35;;;;;;;15.39;81.50;98424.09;5051990;28;20074;-76
2023/04/24 04:57:07;;;;;;;19.80;14.38;;;;;;;15.38;80.82;98399.66;5051802;28;20029;-77
2023/04/24 04:59:33;;;;;;;16.60;13.85;;;;;;;15.84;79.66;98424.53;5051762;28;20380;-77
2023/04/24 05:01:58;;;;;;;17.90;13.88;;;;;;;15.98;78.23;98410.22;5052024;28;20024;-77
2023/04/24 05:04:23;;;;;;;19.52;14.20;;;;;;;16.64;76.13;98410.38;5052443;28;20108;-77
2023/04/24 05:06:50;;;;;;;14.68;12.90;;;;;;;17.47;72.70;98426.38;5051776;28;20029;-77
2023/04/24 05:09:16;;;;;;;16.90;13.00;;;;;;;18.22;69.73;98413.09;5052101;28;20059;-77
2023/04/24 05:11:41;;;;;;;14.43;12.00;;;;;;;18.34;69.43;98394.28;5051721;28;20060;-77
2023/04/24 05:14:07;;;;;;;15.73;12.68;;;;;;;18.41;68.15;98395.34;5051930;28;20029;-77
2023/04/24 05:16:32;;;;;;;15.20;12.70;;;;;;;18.31;68.49;98410.38;5051702;28;20469;-77
2023/04/24 05:18:57;;;;;;;13.40;11.43;;;;;;;17.76;68.74;98412.28;5052263;28;20025;-77
2023/04/24 05:21:23;;;;;;;14.70;12.10;;;;;;;17.25;70.45;98429.38;5051962;28;20029;-77
2023/04/24 05:23:48;;;;;;;17.00;13.25;;;;;;;16.65;71.82;98417.28;5051616;28;20021;-77
2023/04/24 05:26:14;;;;;;;17.70;12.63;;;;;;;16.44;72.80;98425.31;5051978;28;20062;-77
2023/04/24 05:28:40;;;;;;;14.60;12.02;;;;;;;16.63;73.12;98444.66;5051448;28;20036;-77
2023/04/24 05:31:06;;;;;;;18.08;13.50;;;;;;;16.42;72.71;98419.34;5051912;28;20461;-77
2023/04/24 05:33:31;;;;;;;21.40;11.68;;;;;;;16.22;73.33;98433.44;5051396;28;20064;-77
2023/04/24 05:35:57;;;;;;;14.40;11.40;;;;;;;16.12;74.14;98445.75;5051679;28;20025;-77
2023/04/24 05:38:22;;;;;;;16.02;12.35;;;;;;;15.85;74.78;98420.97;5051617;28;20052;-77
2023/04/24 05:40:48;;;;;;;16.23;12.45;;;;;;;15.75;74.83;98425.34;5051404;28;20096;-77
2023/04/24 05:43:13;;;;;;;16.73;13.43;;;;;;;15.82;74.91;98421.22;5051527;28;20459;-77
2023/04/24 05:45:39;;;;;;;20.52;14.50;;;;;;;15.73;75.35;98426.47;5051247;28;20094;-77
2023/04/24 05:48:05;;;;;;;15.20;13.48;;;;;;;15.65;75.56;98432.38;5051683;28;20060;-77
2023/04/24 05:50:31;;;;;;;18.08;14.30;;;;;;;15.55;76.22;98423.59;5051645;28;20064;-77
2023/04/24 05:52:58;;;;;;;19.73;13.80;;;;;;;15.62;76.17;98416.84;5051275;28;20140;-77
2023/04/24 05:55:25;;;;;;;16.88;13.63;;;;;;;15.58;76.48;98423.31;5051409;28;20489;-77
2023/04/24 05:57:51;;;;;;;17.73;13.93;;;;;;;15.68;76.40;98437.38;5051204;28;20425;-77
2023/04/24 06:00:19;;;;;;;16.60;13.25;;;;;;;15.83;75.86;98433.38;5051565;28;20132;-77
2023/04/24 06:02:45;;;;;;;16.83;14.23;;;;;;;15.85;75.39;98425.41;5051320;28;20083;-77
2023/04/24 06:05:10;;;;;;;14.75;13.18;;;;;;;16.04;74.71;98454.31;5051496;28;20025;-77
2023/04/24 06:07:36;;;;;;;17.92;13.32;;;;;;;15.99;75.04;98456.50;5051030;28;20392;-77
2023/04/24 06:10:01;;;;;;;15.07;12.90;;;;;;;15.94;74.96;98441.16;5053644;28;20033;-74
2023/04/24 06:12:27;;;;;;;16.58;12.70;;;;;;;15.85;75.28;98444.59;5055005;28;20423;-74
2023/04/24 06:14:54;;;;;;;17.90;13.20;;;;;;;15.80;75.58;98436.31;5055062;28;20036;-74
2023/04/24 06:17:19;;;;;;;14.45;12.93;;;;;;;15.98;75.71;98460.09;5055266;28;20380;-74
2023/04/24 06:19:44;;;;;;;14.07;12.55;;;;;;;16.07;75.82;98454.03;5054869;28;20029;-74
2023/04/24 06:22:10;;;;;;;14.95;13.00;;;;;;;16.27;75.59;98467.22;5055075;28;20376;-74
2023/04/24 06:24:36;;;;;;;14.10;12.63;;;;;;;16.28;75.37;98442.59;5054793;28;20028;-74
2023/04/24 06:27:01;;;;;;;14.95;12.80;;;;;;;16.45;74.74;98465.56;5054931;28;20524;-74
2023/04/24 06:29:27;;;;;;;17.02;12.68;;;;;;;16.48;74.78;98459.22;5055068;28;20029;-74
2023/04/24 06:31:53;;;;;;;16.17;12.88;;;;;;;16.39;74.98;98452.97;5054520;28;20021;-74
2023/04/24 06:34:18;;;;;;;15.77;12.07;;;;;;;16.35;74.66;98456.81;5054871;28;20117;-74
2023/04/24 06:36:44;;;;;;;16.95;12.43;;;;;;;16.30;74.78;98472.19;5054476;28;20083;-74
2023/04/24 06:39:10;;;;;;;15.63;13.50;;;;;;;16.31;75.22;98474.69;5054617;28;20025;-74
2023/04/24 06:41:35;;;;;;;13.93;12.63;;;;;;;16.29;75.04;98463.47;5054410;28;20025;-74
2023/04/24 06:44:00;;;;;;;15.30;12.73;;;;;;;16.27;75.21;98452.28;5054744;28;20024;-74
2023/04/24 06:46:27;;;;;;;15.02;12.57;;;;;;;16.35;74.99;98428.78;5054694;28;20025;-74
2023/04/24 06:48:55;;;;;;;15.23;13.27;;;;;;;16.88;74.31;98465.16;5054253;28;20052;-75
2023/04/24 06:51:25;;;;;;;13.23;11.93;;;;;;;16.85;73.48;98430.41;5054543;28;20032;-74
2023/04/24 06:53:51;;;;;;;19.50;12.77;;;;;;;17.13;72.98;98452.38;5052783;28;20400;-74
2023/04/24 06:56:17;;;;;;;14.02;12.40;;;;;;;17.35;72.54;98465.19;5054234;28;20029;-74
2023/04/24 06:58:42;;;;;;;17.05;12.73;;;;;;;17.53;72.68;98464.44;5054068;28;20035;-74
2023/04/24 07:01:07;;;;;;;15.18;12.80;;;;;;;18.02;70.65;98467.72;5054364;28;20538;-75
2023/04/24 07:03:33;;;;;;;14.98;12.70;;;;;;;18.46;70.12;98471.34;5054348;28;20104;-74
2023/04/24 07:05:58;;;;;;;13.90;10.90;;;;;;;19.74;67.58;98462.88;5054009;28;20112;-75
2023/04/24 07:08:25;;;;;;;11.57;10.48;;;;;;;22.31;61.34;98466.72;5053417;28;20052;-76
2023/04/24 07:10:50;;;;;;;13.68;9.75;;;;;;;22.36;58.45;98455.56;5039899;28;20034;-75
2023/04/24 07:13:17;;;;;;;11.68;8.77;;;;;;;21.70;59.50;98456.88;5042678;28;20028;-76
2023/04/24 07:15:42;;;;;;;10.85;8.50;;;;;;;22.36;59.15;98459.06;5043436;28;20030;-76
2023/04/24 07:18:08;;;;;;;11.48;8.65;;;;;;;23.09;56.03;98457.69;5041715;28;20048;-76
2023/04/24 07:20:33;;;;;;;9.55;7.65;;;;;;;22.84;56.91;98467.69;5037929;28;20517;-76
2023/04/24 07:22:59;;;;;;;8.68;7.88;;;;;;;22.71;57.19;98464.75;5041766;28;20041;-76
2023/04/24 07:25:24;;;;;;;8.52;7.72;;;;;;;23.79;55.42;98445.00;5053769;28;20395;-76
2023/04/24 07:27:50;;;;;;;8.40;7.60;;;;;;;25.28;52.44;98465.59;5053751;28;20307;-76
2023/04/24 07:30:15;;;;;;;7.88;7.07;;;;;;;25.63;50.66;98458.41;5053652;28;20029;-76
2023/04/24 07:32:41;;;;;;;7.85;6.95;;;;;;;25.20;51.60;98441.75;5053159;28;20064;-76
2023/04/24 07:35:06;;;;;;;7.53;6.82;;;;;;;26.18;50.32;98447.78;5053547;28;20477;-76
2023/04/24 07:37:32;;;;;;;8.27;7.47;;;;;;;26.08;49.56;98450.00;5053470;28;20438;-76
2023/04/24 07:39:57;;;;;;;8.05;7.35;;;;;;;26.20;50.01;98447.56;5053087;28;20056;-76
2023/04/24 07:42:23;;;;;;;8.00;7.20;;;;;;;27.53;48.04;98454.66;5054036;28;20056;-76
2023/04/24 07:44:48;;;;;;;7.53;6.70;;;;;;;28.95;45.73;98457.25;5053464;28;20028;-76
2023/04/24 07:47:17;;;;;;;7.60;6.63;;;;;;;30.42;43.79;98444.75;5053831;28;20090;-76
2023/04/24 07:49:42;;;;;;;7.88;7.07;;;;;;;30.59;42.62;98463.72;5053123;28;20056;-76
2023/04/24 07:52:07;;;;;;;7.40;6.70;;;;;;;30.68;42.98;98461.56;5053243;28;20049;-76
2023/04/24 07:54:33;;;;;;;7.07;6.47;;;;;;;29.76;43.76;98465.22;5053514;28;20136;-76
2023/04/24 07:56:58;;;;;;;7.43;6.70;;;;;;;28.35;45.58;98468.38;5053116;28;20021;-76
2023/04/24 07:59:24;;;;;;;6.93;6.32;;;;;;;26.86;47.54;98453.06;5053290;28;20029;-76
2023/04/24 08:01:49;;;;;;;6.93;6.32;;;;;;;26.77;47.67;98471.16;5053004;28;20021;-76
2023/04/24 08:04:15;;;;;;;6.82;5.88;;;;;;;27.88;46.78;98457.06;5053126;28;20035;-76
2023/04/24 08:06:40;;;;;;;6.80;6.20;;;;;;;30.39;43.29;98441.72;5052877;28;20455;-76
2023/04/24 08:09:05;;;;;;;6.70;6.00;;;;;;;32.33;40.21;98444.25;5052918;28;20036;-76
2023/04/24 08:11:31;;;;;;;6.00;5.50;;;;;;;33.83;38.57;98455.22;5053048;28;20033;-76
2023/04/24 08:13:57;;;;;;;5.70;5.20;;;;;;;34.06;37.92;98453.38;5052844;28;20114;-76
2023/04/24 08:16:23;;;;;;;6.70;5.60;;;;;;;33.87;37.46;98460.94;5052960;28;20025;-76
2023/04/24 08:18:49;;;;;;;6.95;5.95;;;;;;;33.67;37.95;98448.00;5052633;28;20105;-76
2023/04/24 08:21:17;;;;;;;5.85;5.38;;;;;;;33.46;38.30;98450.47;5052805;28;20500;-76
2023/04/24 08:23:42;;;;;;;6.00;5.40;;;;;;;32.89;38.52;98461.41;5052377;28;20037;-76
2023/04/24 08:26:08;;;;;;;7.30;6.57;;;;;;;31.09;40.83;98455.31;5052817;28;20380;-76
2023/04/24 08:28:33;;;;;;;5.97;5.47;;;;;;;29.60;42.74;98454.25;5052699;28;20064;-76
2023/04/24 08:30:58;;;;;;;6.60;5.90;;;;;;;28.46;44.61;98466.91;5052688;28;20033;-76
2023/04/24 08:33:24;;;;;;;6.32;5.82;;;;;;;27.31;46.15;98442.59;5051691;28;20385;-76
2023/04/24 08:35:50;;;;;;;5.47;5.03;;;;;;;26.51;48.57;98461.25;5052314;28;20025;-76
2023/04/24 08:38:16;;;;;;;6.20;5.60;;;;;;;25.56;49.71;98443.38;5052299;28;20495;-76
2023/04/24 08:40:42;;;;;;;7.68;6.80;;;;;;;24.79;51.57;98454.91;5052584;28;20033;-76
2023/04/24 08:43:08;;;;;;;6.68;6.07;;;;;;;24.31;52.53;98463.44;5052499;28;20029;-76
2023/04/24 08:45:33;;;;;;;6.88;6.28;;;;;;;23.75;53.25;98455.19;5052391;28;20503;-75
2023/04/24 08:47:59;;;;;;;6.68;6.18;;;;;;;23.42;54.23;98450.19;5052031;28;20040;-76
2023/04/24 08:50:25;;;;;;;6.85;6.25;;;;;;;23.16;54.56;98463.91;5052320;28;20029;-75
2023/04/24 08:52:53;;;;;;;7.38;6.43;;;;;;;23.00;55.11;98465.91;5051850;28;20056;-76
2023/04/24 08:55:20;;;;;;;6.93;6.32;;;;;;;22.61;56.07;98457.06;5052430;28;20070;-76
2023/04/24 08:57:49;;;;;;;6.88;6.28;;;;;;;22.29;56.97;98473.19;5051065;28;20480;-75
2023/04/24 09:00:15;;;;;;;8.10;6.60;;;;;;;22.03;57.80;98466.31;5052408;28;20032;-75
2023/04/24 09:02:46;;;;;;;7.85;6.10;;;;;;;21.75;59.01;98465.97;5052003;28;20033;-75
2023/04/24 09:05:13;;;;;;;7.63;6.95;;;;;;;21.29;60.23;98475.50;5051959;28;20025;-76
2023/04/24 09:07:39;;;;;;;9.98;7.45;;;;;;;20.91;61.14;98473.38;5051875;28;20103;-76
2023/04/24 09:10:06;;;;;;;7.15;6.55;;;;;;;20.67;61.98;98462.78;5051850;28;20507;-76
2023/04/24 09:12:32;;;;;;;8.32;7.18;;;;;;;20.60;62.58;98475.03;5051699;28;20484;-76
2023/04/24 09:14:58;;;;;;;7.03;5.95;;;;;;;20.39;62.74;98452.50;5052014;28;20236;-76
2023/04/24 09:17:26;;;;;;;7.82;7.10;;;;;;;20.30;62.58;98444.69;5051905;28;20055;-75
2023/04/24 09:19:52;;;;;;;9.02;6.68;;;;;;;20.34;62.88;98464.53;5051524;28;20392;-76
2023/04/24 09:22:18;;;;;;;6.35;5.75;;;;;;;20.29;63.38;98469.50;5051884;28;20024;-76
2023/04/24 09:24:45;;;;;;;7.15;5.90;;;;;;;20.16;62.73;98454.09;5051887;28;20017;-76
2023/04/24 09:27:12;;;;;;;7.47;6.78;;;;;;;20.08;63.13;98454.06;5051718;28;20025;-76
2023/04/24 09:29:37;;;;;;;7.25;6.55;;;;;;;19.97;63.72;98443.78;5051667;28;20032;-76
2023/04/24 09:32:21;;;;;;;7.85;7.05;;;;;;;19.94;63.76;98471.38;5051220;28;20033;-76
2023/04/24 09:34:47;;;;;;;7.53;6.82;;;;;;;19.73;63.85;98444.53;5051666;28;20040;-75
2023/04/24 09:37:27;;;;;;;9.98;6.60;;;;;;;19.66;63.78;98439.06;5051790;28;20033;-76
2023/04/24 09:40:11;;;;;;;7.75;6.80;;;;;;;19.74;64.45;98460.22;5051392;28;20380;-76
2023/04/24 09:42:37;;;;;;;9.05;6.82;;;;;;;19.75;66.17;98456.59;5051646;28;20029;-76
2023/04/24 09:45:03;;;;;;;7.60;6.10;;;;;;;19.69;67.68;98439.56;5055424;28;20035;-76
2023/04/24 09:47:36;;;;;;;7.78;7.07;;;;;;;20.02;68.61;98452.09;5055770;28;20029;-75
2023/04/24 09:50:12;;;;;;;7.75;7.10;;;;;;;20.26;68.88;98446.84;5055419;28;20036;-76
2023/04/24 09:52:45;;;;;;;7.53;6.55;;;;;;;20.32;67.79;98411.81;5055460;28;20036;-76
2023/04/24 09:55:16;;;;;;;6.63;5.93;;;;;;;20.73;67.71;98425.13;5055157;28;20106;-76
2023/04/24 09:58:11;;;;;;;7.03;6.35;;;;;;;21.16;65.70;98455.66;5055566;28;20032;-76
2023/04/24 10:00:36;;;;;;;6.13;5.50;;;;;;;21.28;65.57;98455.28;5052873;28;20040;-76
2023/04/24 10:03:04;;;;;;;8.88;6.57;;;;;;;21.33;64.13;98440.59;5052717;28;20044;-76
2023/04/24 10:05:32;;;;;;;7.20;6.50;;;;;;;21.37;63.79;98455.16;5052833;28;20033;-76
2023/04/24 10:08:02;;;;;;;6.30;5.70;;;;;;;21.38;64.42;98455.97;5052636;28;20184;-76
2023/04/24 10:10:29;;;;;;;6.13;5.53;;;;;;;21.42;64.62;98450.19;5052907;28;20047;-76
2023/04/24 10:12:54;;;;;;;5.95;5.38;;;;;;;21.38;64.03;98459.44;5052545;28;20037;-76
2023/04/24 10:15:21;;;;;;;6.32;5.47;;;;;;;21.22;63.71;98455.97;5052856;28;20032;-76
2023/04/24 10:17:52;;;;;;;5.40;4.90;;;;;;;20.86;62.40;98432.53;5052614;28;20049;-76
2023/04/24 10:20:25;;;;;;;5.72;5.22;;;;;;;20.64;62.73;98436.66;5052601;28;20036;-76
2023/04/24 10:22:53;;;;;;;5.65;5.07;;;;;;;20.69;63.53;98442.31;5052330;28;20082;-76
2023/04/24 10:25:21;;;;;;;5.43;4.93;;;;;;;20.57;64.37;98430.41;5052506;28;20063;-76
2023/04/24 10:27:48;;;;;;;6.10;5.45;;;;;;;20.55;63.94;98425.25;5035683;28;20510;-76
2023/04/24 10:30:14;;;;;;;6.28;5.68;;;;;;;20.58;64.19;98440.81;5052127;28;20037;-76
2023/04/24 10:32:39;;;;;;;6.72;6.03;;;;;;;20.58;64.10;98440.81;5052070;28;20048;-76
2023/04/24 10:35:07;;;;;;;9.65;7.70;;;;;;;20.58;64.13;98443.44;5052146;28;20144;-76
2023/04/24 10:37:50;;;;;;;7.88;7.07;;;;;;;20.39;64.82;98423.41;5054002;28;20043;-76
2023/04/24 10:40:26;;;;;;;7.40;6.78;;;;;;;20.35;65.08;98445.03;5054711;28;20036;-76
2023/04/24 10:42:53;;;;;;;6.93;6.32;;;;;;;20.24;65.96;98427.69;5053135;28;20408;-76
2023/04/24 10:45:21;;;;;;;7.72;6.30;;;;;;;20.31;65.51;98438.41;5054471;28;20028;-76
2023/04/24 10:47:58;;;;;;;7.22;6.53;;;;;;;20.07;65.79;98447.97;5054677;28;20032;-76
2023/04/24 10:50:26;;;;;;;8.52;6.90;;;;;;;19.90;65.84;98436.50;5054735;28;20071;-76
2023/04/24 10:52:52;;;;;;;8.05;6.40;;;;;;;19.90;65.59;98441.78;5054191;28;20442;-76
2023/04/24 10:55:42;;;;;;;6.57;5.97;;;;;;;19.80;64.72;98437.63;5053719;28;20071;-76
2023/04/24 10:58:07;;;;;;;7.03;5.47;;;;;;;19.75;65.25;98422.25;5054577;28;20033;-76
2023/04/24 11:00:35;;;;;;;6.35;5.65;;;;;;;19.89;65.55;98426.13;5054450;28;20033;-76
2023/04/24 11:03:04;;;;;;;7.35;6.65;;;;;;;19.99;65.42;98420.69;5054453;28;20212;-76
2023/04/24 11:05:50;;;;;;;7.03;6.22;;;;;;;20.20;64.76;98421.06;5054210;28;20021;-76
2023/04/24 11:08:23;;;;;;;8.07;6.95;;;;;;;20.30;64.61;98440.22;5053802;28;20025;-76
2023/04/24 11:10:57;;;;;;;8.30;7.47;;;;;;;20.41;64.85;98429.34;5054471;28;20049;-76
2023/04/24 11:13:23;;;;;;;7.53;6.82;;;;;;;20.70;64.45;98438.66;5054021;28;20033;-76
2023/04/24 11:16:14;;;;;;;7.72;6.78;;;;;;;20.96;64.17;98446.41;5054131;28;20025;-76
2023/04/24 11:18:40;;;;;;;6.65;6.05;;;;;;;21.10;64.17;98435.13;5053880;28;20099;-76